Главная страница
METAR-TAF:

METAR-TAF

Аэропорты :

Криштиану Роналду

Фуншал, Мадейра, Португалия

широта: 32-41-52N, долгота: 016-46-28W, высота над уровнем моря: 59 м

Текущие метеонаблюдения

Эта сводка был подготовлена 33 минут назад, в 13:30 UTC
Ветер 11 Узел от северо-северо-восточный, изменяющийся между северно-северо-западный и восточно-северо-восточный
Температура 24°C
Влажность 65%
Давление 1024 hPa
Видимость 10 км и более
Отдельные облака на высоте 1500 фута

METAR: LPMA 161330Z 02011KT 330V070 9999 SCT015 24/17 Q1024

Время: 15:03 (14:03 UTC)

Прогноз

Эта сводка был подготовлена 3 часа и 3 минут назад, в 11:00 UTC
Прогноз действительный с 16-го 12 UTC до 17-го 12 UTC
Ветер 12 Узел от северный
Видимость 10 км и более
Отдельные облака на высоте 1600 фута
Вероятность 40% :
временами
С 16-го 12 UTC до 17-го 12 UTC
Ветер 15 Узел от северный с порывами до 25 Узел

TAF: LPMA 161100Z 1612/1712 01012KT 9999 SCT016 PROB40 TEMPO 1612/1712 01015G25KT

Метеонаблюдения и прогнозы для более 4000 аэропортов (сводки METAR и TAF).

Имеющиеся станции представлены на карте желтыми и красными точками.

Чтобы увидеть название станции, наведите на нее мышь.

Затем щелкните, чтобы увидеть метеонаблюдения и метеопрогнозы.

Управление картой: чтобы увеличить масштаб, щелкните зеленые кнопки с черным крестиком; чтобы уменьшить масштаб, щелкните зеленую кнопку с тире; для просмотра соседних карт щелкайте зеленые стрелки.


METAR-TAF: